Latest Coastal Weather Observations for Portland Airport

IDV60701

Issued at 1:02 pm EST Thursday 30 June 2016 (issued every 10 minutes, with the page automatically refreshed every 10 minutes)

About coastal observations | Map of coastal stations | Coastal observations for VIC | Marine services | Other Formats
Station Details ID: 090171 Name: CASHMORE AIRPORT Lat: -38.31 Lon: 141.47 Height: 80.9 m
Data from the previous 72 hours. | See also: Recent months at Portland Airport
Date/Time
EST
Temp
°C
Wind Pressure Rain since
9am
mm
Weather Cloud Vis
km
Sea
Height
m
Swell
Dir  Spd
kts
Gust
kts
hPa Trend Height
m
Period
s
Dir
30/01:00pm 9.7 WNW 16 22 1003.9 - 6.2 - Partly cloudy 10 - - - -
30/12:45pm 8.9 NW 15 29 1004.0 - 6.2 - Partly cloudy 10 - - - -
30/12:30pm 8.7 NW 14 20 1003.9 - 6.2 - Partly cloudy 10 - - - -
30/12:15pm 8.4 WNW 17 24 1004.1 - 6.2 - Partly cloudy 10 - - - -
30/12:07pm 8.8 WNW 18 28 1004.4 - 5.8 - Partly cloudy 7 - - - -
30/12:00pm 8.6 WNW 20 29 1004.4 - 5.4 Rain Cloudy 6 - - - -
30/11:55am 8.8 WNW 20 31 1004.3 - 5.2 - Partly cloudy 6 - - - -
30/11:50am 8.8 WNW 19 31 1004.4 - 5.0 - Partly cloudy 8 - - - -
30/11:36am 9.0 WNW 21 29 1004.6 - 4.4 - Partly cloudy 9 - - - -
30/11:35am 9.0 WNW 20 30 1004.7 - 4.4 - Partly cloudy 9 - - - -
30/11:34am 9.0 WNW 21 30 1004.6 - 4.4 - Partly cloudy 10 - - - -
30/11:30am 9.1 WNW 19 30 1004.8 - 4.2 - Partly cloudy 10 - - - -
30/11:25am 8.9 WNW 19 30 1004.7 - 4.0 - Partly cloudy 5 - - - -
30/11:19am 9.2 NW 18 26 1004.9 - 3.6 - Partly cloudy 4 - - - -
30/11:14am 9.7 NW 15 25 1004.8 - 2.4 - Partly cloudy 6 - - - -
30/11:05am 9.9 NNW 13 19 1004.3 - 1.4 - Partly cloudy 10 - - - -
30/11:00am 9.9 NNW 13 19 1004.2 - 1.4 - Partly cloudy 10 - - - -
30/10:50am 9.8 NNW 14 21 1004.3 - 1.2 - Partly cloudy 10 - - - -
30/10:49am 9.8 NNW 14 21 1004.3 - 1.2 - Partly cloudy 10 - - - -
30/10:35am 9.7 NNW 15 25 1004.2 - 1.2 - Partly cloudy 10 - - - -
30/10:30am 9.6 NNW 16 21 1004.4 - 1.2 - Partly cloudy 10 - - - -
30/10:00am 9.5 N 13 19 1004.6 - 0.8 - Partly cloudy 10 - - - -
30/09:52am 9.5 N 13 19 1004.6 - 0.8 - Partly cloudy 10 - - - -
30/09:30am 9.3 NNW 13 19 1004.9 - 0.4 - Partly cloudy 10 - - - -
30/09:00am 9.4 N 15 22 1004.5 - 2.2 - Cloudy 10 - - - -
30/08:30am 9.2 N 14 20 1004.6 - 2.2 - Partly cloudy 10 - - - -
30/08:00am 8.9 NNW 15 21 1004.6 - 2.2 - Partly cloudy 10 - - - -
30/07:30am 8.9 NNW 17 24 1004.9 - 2.0 - Partly cloudy 10 - - - -
30/07:00am 8.7 N 14 21 1005.2 - 2.0 - Partly cloudy 10 - - - -
30/06:34am 9.0 NNW 16 26 1006.0 - 2.0 - Partly cloudy 10 - - - -
30/06:30am 9.0 NNW 15 22 1006.2 - 1.6 - Partly cloudy 10 - - - -
30/06:00am 9.4 NNW 17 28 1006.3 - 1.6 - Cloudy 10 - - - -
30/05:41am 9.4 NNW 18 29 1005.6 - 1.6 - Partly cloudy 10 - - - -
30/05:30am 9.5 NNW 19 27 1005.8 - 1.6 - Partly cloudy 10 - - - -
30/05:00am 9.2 NNW 17 27 1006.1 - 1.6 - Partly cloudy 10 - - - -
30/04:30am 9.1 N 16 27 1006.6 - 1.6 - Partly cloudy 10 - - - -
30/04:25am 9.1 N 15 27 1006.7 - 1.6 - Partly cloudy 10 - - - -
30/04:00am 8.8 N 15 24 1007.2 - 1.6 - Partly cloudy 10 - - - -
30/03:38am 8.7 N 15 25 1007.6 - 1.6 - Partly cloudy 10 - - - -
30/03:30am 8.7 N 14 19 1008.0 - 1.4 - Partly cloudy 10 - - - -
30/03:00am 9.0 NNW 14 20 1008.8 - 1.0 Rain Cloudy 10 - - - -
30/02:44am 9.9 NNW 16 26 1009.1 - 0.4 - Partly cloudy 10 - - - -
30/02:30am 10.1 NNW 15 22 1009.3 - 0.2 - Partly cloudy 10 - - - -
30/02:00am 10.3 NNW 16 24 1009.6 - 0.2 - Partly cloudy 10 - - - -
30/01:30am 10.7 N 17 26 1009.9 - 0.2 - Partly cloudy 10 - - - -
30/01:02am 10.7 N 18 29 1009.5 - 0.2 - Partly cloudy 10 - - - -
30/01:00am 10.5 N 17 25 1009.7 - 0.2 - Partly cloudy 10 - - - -
30/12:31am 10.9 N 18 29 1010.8 - 0.2 - Cloudy 10 - - - -
30/12:30am 10.7 N 17 26 1010.9 - 0.2 - Cloudy 10 - - - -
30/12:05am 10.8 N 16 30 1011.4 - 0.2 - Cloudy 10 - - - -
30/12:00am 10.8 N 15 21 1011.5 - 0.2 - Cloudy 10 - - - -
 
Date/Time
EST
Temp
°C
Wind Pressure Rain since
9am
mm
Weather Cloud Vis
km
Sea
Height
m
Swell
Dir  Spd
kts
Gust
kts
hPa Trend Height
m
Period
s
Dir
29/11:30pm 10.8 N 13 21 1011.9 - 0.2 - Cloudy 10 - - - -
29/11:06pm 11.0 N 15 25 1012.1 - 0.2 - Cloudy 10 - - - -
29/11:00pm 11.0 N 15 21 1012.1 - 0.2 - Cloudy 10 - - - -
29/10:37pm 11.1 N 15 25 1012.5 - 0.2 - Cloudy 10 - - - -
29/10:30pm 11.0 N 16 22 1012.7 - 0.2 - Cloudy 10 - - - -
29/10:00pm 11.0 N 16 25 1013.4 - 0.2 - Partly cloudy 10 - - - -
29/09:30pm 11.1 N 16 22 1014.0 - 0.2 - Partly cloudy 10 - - - -
29/09:05pm 11.4 N 15 25 1014.3 - 0.2 - Partly cloudy 10 - - - -
29/09:00pm 11.3 N 14 23 1014.5 - 0.2 - Partly cloudy 10 - - - -
29/08:30pm 11.4 N 15 22 1014.9 - 0.2 - Partly cloudy 10 - - - -
29/08:00pm 11.5 NNW 12 22 1015.8 - 0.2 - Cloudy 10 - - - -
29/07:30pm 11.5 N 15 23 1015.9 - 0.2 - Cloudy 10 - - - -
29/07:00pm 11.4 N 12 22 1016.0 - 0.2 - Partly cloudy 10 - - - -
29/06:30pm 11.2 N 9 15 1016.4 - 0.2 - Cloudy 10 - - - -
29/06:00pm 10.9 N 7 10 1016.4 - 0.2 - Cloudy 10 - - - -
29/05:30pm 11.4 N 9 15 1016.5 - 0.2 - Cloudy 10 - - - -
29/05:00pm 11.6 N 9 15 1016.8 - 0.2 - Partly cloudy 10 - - - -
29/04:30pm 12.5 N 11 16 1017.1 - 0.2 - Partly cloudy 10 - - - -
29/04:00pm 12.2 N 10 16 1017.4 - 0.2 - Partly cloudy 10 - - - -
29/03:30pm 12.8 N 14 19 1017.8 - 0.2 - Partly cloudy 10 - - - -
29/03:00pm 13.5 NNW 14 21 1018.2 - 0.2 - Cloudy 10 - - - -
29/02:30pm 13.4 NNW 14 24 1018.7 - 0.2 - Partly cloudy 10 - - - -
29/02:00pm 13.3 NNW 11 16 1019.1 - 0.2 - Partly cloudy 10 - - - -
29/01:30pm 13.3 NNW 13 18 1019.6 - 0.2 - Partly cloudy 10 - - - -
29/01:00pm 13.0 NNW 12 18 1020.4 - 0.2 - Partly cloudy 10 - - - -
29/12:30pm 13.5 NNW 15 20 1021.1 - 0.2 - Partly cloudy 10 - - - -
29/12:00pm 13.1 NNW 13 19 1021.9 - 0.2 - Mostly cloudy 10 - - - -
29/11:30am 12.5 NNW 12 18 1022.5 - 0.2 - - 10 - - - -
29/11:00am 12.1 N 7 10 1023.0 - 0.2 - - 10 - - - -
29/10:30am 10.7 N 8 11 1023.5 - 0.0 - - 10 - - - -
29/10:00am 10.1 N 10 15 1023.7 - 0.0 - - 10 - - - -
29/09:30am 9.2 N 10 14 1023.9 - 0.0 - - 10 - - - -
29/09:00am 8.5 N 11 16 1024.0 - 2.4 - Partly cloudy 10 - - - -
29/08:30am 7.9 N 9 12 1024.1 - 2.4 - - 10 - - - -
29/08:00am 7.6 N 9 11 1024.1 - 2.4 - - 10 - - - -
29/07:30am 7.7 N 9 12 1024.0 - 2.4 - - 10 - - - -
29/07:00am 8.1 N 7 10 1024.1 - 2.4 - - 10 - - - -
29/06:30am 8.8 N 9 12 1024.0 - 2.4 - - 10 - - - -
29/06:00am 9.1 N 7 10 1023.9 - 2.4 - Mostly clear 10 - - - -
29/05:30am 9.5 NNW 7 10 1023.7 - 2.4 - Partly cloudy 10 - - - -
29/05:00am 9.5 NNW 8 10 1023.6 - 2.4 - Partly cloudy 10 - - - -
29/04:30am 9.3 N 7 10 1023.5 - 2.4 - Partly cloudy 10 - - - -
29/04:00am 9.3 N 8 10 1023.6 - 2.4 - Partly cloudy 10 - - - -
29/03:30am 9.6 N 8 11 1023.9 - 2.2 - Partly cloudy 10 - - - -
29/03:00am 9.9 N 7 9 1024.0 - 2.2 - Cloudy 10 - - - -
29/02:35am 10.2 N 7 9 1024.0 - 2.2 - Partly cloudy 10 - - - -
29/02:30am 10.2 N 6 8 1024.0 - 2.2 - Partly cloudy 10 - - - -
29/02:12am 10.2 NW 6 10 1024.4 - 2.2 - Partly cloudy 6 - - - -
29/02:00am 10.1 NNW 8 11 1024.2 - 2.2 - Partly cloudy 10 - - - -
29/01:30am 10.0 NNW 8 11 1024.2 - 2.2 - Partly cloudy 10 - - - -
29/01:00am 9.6 N 7 10 1024.1 - 2.2 - Partly cloudy 10 - - - -
29/12:30am 9.7 N 7 9 1024.3 - 2.2 - Partly cloudy 10 - - - -
29/12:00am 10.1 N 7 11 1024.5 - 2.2 - Cloudy 10 - - - -
 
Date/Time
EST
Temp
°C
Wind Pressure Rain since
9am
mm
Weather Cloud Vis
km
Sea
Height
m
Swell
Dir  Spd
kts
Gust
kts
hPa Trend Height
m
Period
s
Dir
28/11:30pm 10.1 NNW 7 9 1024.4 - 2.2 - Cloudy 10 - - - -
28/11:00pm 10.0 N 7 8 1024.3 - 2.2 - Partly cloudy 10 - - - -
28/10:30pm 10.5 N 7 8 1024.3 - 2.2 - Partly cloudy 10 - - - -
28/10:00pm 10.8 NNW 7 10 1024.4 - 2.2 - Partly cloudy 10 - - - -
28/09:30pm 11.1 NNW 8 10 1024.5 - 2.2 - Partly cloudy 10 - - - -
28/09:00pm 11.3 NNW 9 13 1024.5 - 2.2 Recent precip. Cloudy 10 - - - -
28/08:30pm 11.0 NNW 8 10 1024.4 - 2.0 - Partly cloudy 10 - - - -
28/08:06pm 11.4 NNW 7 10 1024.3 - 2.0 - Partly cloudy 10 - - - -
28/08:00pm 11.4 NW 9 12 1024.3 - 2.0 - Partly cloudy 8 - - - -
28/07:42pm 11.4 NW 7 9 1024.4 - 1.0 - Partly cloudy 6 - - - -
28/07:30pm 11.4 WNW 7 10 1024.3 - 0.6 - Partly cloudy 8 - - - -
28/07:00pm 11.7 NNW 11 15 1023.7 - 0.4 - Partly cloudy 10 - - - -
28/06:30pm 12.3 NNW 9 13 1023.4 - 0.4 - Partly cloudy 10 - - - -
28/06:00pm 12.2 NNW 8 10 1023.2 - 0.4 - Cloudy 10 - - - -
28/05:30pm 12.0 NW 9 11 1023.0 - 0.4 - Partly cloudy 10 - - - -
28/05:00pm 12.2 NW 10 13 1022.9 - 0.4 - - 10 - - - -
28/04:30pm 13.1 NW 15 19 1022.5 - 0.4 - - 10 - - - -
28/04:00pm 13.1 NW 13 17 1022.5 - 0.4 - Partly cloudy 10 - - - -
28/03:30pm 12.8 NW 16 23 1022.4 - 0.2 - Partly cloudy 10 - - - -
28/03:00pm 13.6 NW 11 15 1022.3 - 0.2 - Cloudy 10 - - - -
28/02:30pm 14.8 NW 14 20 1022.1 - 0.2 - Partly cloudy 10 - - - -
28/02:00pm 14.9 NW 14 20 1022.2 - 0.2 - Partly cloudy 10 - - - -
28/01:30pm 15.0 NW 14 20 1022.3 - 0.2 - Partly cloudy 10 - - - -
28/01:18pm 14.7 NW 13 19 1022.4 - 0.2 - Partly cloudy 10 - - - -
28/01:00pm 14.0 NNW 12 18 1022.5 - 0.2 - Partly cloudy 10 - - - -
28/12:38pm 14.0 NNW 10 15 1022.7 - 0.2 - Partly cloudy 10 - - - -
28/12:30pm 13.9 NNW 9 14 1022.6 - 0.2 - Partly cloudy 10 - - - -
28/12:00pm 13.4 NNW 12 16 1022.8 - 0.2 - Cloudy 10 - - - -
28/11:30am 12.9 NNW 9 13 1023.1 - 0.2 - Partly cloudy 10 - - - -
28/11:00am 12.3 NNW 9 11 1023.2 - 0.2 - Partly cloudy 10 - - - -
28/10:30am 11.6 NNW 10 13 1023.1 - 0.0 - Partly cloudy 10 - - - -
28/10:11am 12.0 NNW 8 12 1022.9 - 0.0 - Partly cloudy 10 - - - -
28/10:00am 11.2 NNW 9 13 1022.8 - 0.0 - Partly cloudy 10 - - - -
28/09:30am 9.8 NNW 11 15 1022.7 - 0.0 - Partly cloudy 10 - - - -
28/09:29am 9.8 NNW 11 14 1022.7 - 0.0 - Partly cloudy 10 - - - -
28/09:00am 10.5 NW 8 12 1022.4 - 0.2 - - 10 - - - -
28/08:30am 9.9 NW 8 11 1021.9 - 0.2 - Partly cloudy 10 - - - -
28/08:27am 9.8 NNW 8 11 1021.9 - 0.2 - Partly cloudy 10 - - - -
28/08:19am 9.6 NNW 9 12 1021.8 - 0.2 - Partly cloudy 10 - - - -
28/08:00am 9.3 NNW 10 14 1021.5 - 0.2 - Partly cloudy 4 - - - -
28/07:55am 9.3 NNW 10 14 1021.5 - 0.2 - Partly cloudy 6 - - - -
28/07:30am 9.4 NNW 10 14 1021.2 - 0.2 - Partly cloudy 10 - - - -
28/07:00am 9.1 NNW 11 14 1020.9 - 0.2 - Partly cloudy 9 - - - -
28/06:56am 9.1 NNW 10 14 1020.9 - 0.2 - Partly cloudy 10 - - - -
28/06:30am 9.1 NNW 9 13 1020.6 - 0.2 - Partly cloudy 10 - - - -
28/06:00am 9.1 NNW 10 16 1020.4 - 0.2 - Cloudy 10 - - - -
28/05:30am 9.1 NNW 10 14 1020.0 - 0.2 - Partly cloudy 10 - - - -
28/05:00am 9.0 NNW 9 13 1020.0 - 0.2 - - 10 - - - -
28/04:30am 8.8 NNW 10 14 1020.0 - 0.2 - Partly cloudy 10 - - - -
28/04:00am 8.4 NNW 10 15 1019.9 - 0.2 - - 10 - - - -
28/03:30am 8.1 NNW 10 13 1020.1 - 0.2 - - 10 - - - -
28/03:00am 8.5 NNW 10 15 1020.0 - 0.2 Recent precip. - 10 - - - -
28/02:30am 8.5 NNW 9 13 1019.9 - 0.0 - - 10 - - - -
28/02:00am 8.8 NNW 10 14 1019.8 - 0.0 - Partly cloudy 10 - - - -
28/01:30am 8.3 NNW 9 13 1019.8 - 0.0 - Partly cloudy 10 - - - -
28/01:00am 8.7 NNW 10 14 1019.8 - 0.0 - Partly cloudy 10 - - - -
28/12:30am 8.5 NNW 8 11 1020.1 - 0.0 - Partly cloudy 10 - - - -
28/12:00am 8.4 NNW 9 12 1019.9 - 0.0 - Partly cloudy 10 - - - -
 
Date/Time
EST
Temp
°C
Wind Pressure Rain since
9am
mm
Weather Cloud Vis
km
Sea
Height
m
Swell
Dir  Spd
kts
Gust
kts
hPa Trend Height
m
Period
s
Dir
27/11:30pm 8.3 NNW 8 11 1019.9 - 0.0 - - 10 - - - -
27/11:00pm 8.7 NNW 9 12 1019.9 - 0.0 - - 10 - - - -
27/10:30pm 9.0 NNW 9 12 1019.9 - 0.0 - - 10 - - - -
27/10:00pm 9.6 NW 9 11 1019.9 - 0.0 - Partly cloudy 10 - - - -
27/09:30pm 10.0 NW 11 16 1019.9 - 0.0 - Partly cloudy 10 - - - -
27/09:00pm 9.4 NNW 8 11 1019.8 - 0.0 - Cloudy 10 - - - -
27/08:30pm 7.9 N 7 10 1019.7 - 0.0 - Partly cloudy 10 - - - -
27/08:00pm 7.7 NNW 7 8 1019.5 - 0.0 - Partly cloudy 10 - - - -
27/07:30pm 8.2 NNW 7 9 1019.4 - 0.0 - Partly cloudy 10 - - - -
27/07:00pm 8.4 NNW 7 9 1019.0 - 0.0 - Partly cloudy 10 - - - -
27/06:30pm 8.6 N 6 8 1018.8 - 0.0 - Partly cloudy 10 - - - -
27/06:00pm 10.0 NNW 6 8 1018.6 - 0.0 - Mostly clear 10 - - - -
27/05:30pm 10.6 NW 7 10 1018.4 - 0.0 - Partly cloudy 10 - - - -
27/05:00pm 11.0 NW 7 9 1018.1 - 0.0 - Partly cloudy 10 - - - -
27/04:30pm 11.9 NW 12 15 1018.0 - 0.0 - Partly cloudy 10 - - - -
27/04:00pm 12.1 W 10 15 1018.0 - 0.0 - Partly cloudy 10 - - - -
27/03:30pm 12.6 WNW 10 14 1017.8 - 0.0 - Partly cloudy 10 - - - -
27/03:00pm 13.1 W 12 17 1017.5 - 0.0 - Partly cloudy 10 - - - -
27/02:30pm 12.7 W 13 16 1017.4 - 0.0 - Partly cloudy 10 - - - -
27/02:00pm 13.4 WNW 9 12 1017.3 - 0.0 - Partly cloudy 10 - - - -
27/01:30pm 12.6 WNW 10 13 1017.5 - 0.0 - Partly cloudy 10 - - - -

Other Formats:

Comma delimited format used in spreadsheet applications
http://www.bom.gov.au/fwo/IDV60701/IDV60701.94828.axf

JavaScript Object Notation format (JSON) in row-major order
http://www.bom.gov.au/fwo/IDV60701/IDV60701.94828.json